Time;durP1;ratioP1;P1;durP2;ratioP2;P2;SDS_P1;SDS_P2;PMS_P1;PMS_P2;Temp;Humidity;BMP_temperature;BMP_pressure;BME280_temperature;BME280_humidity;BME280_pressure;Samples;Min_cycle;Max_cycle;Signal;HPM_P1;HPM_P2
2022/03/27 00:01:35;;;;;;;50.00;19.02;;;;;;;6.99;48.53;100279.16;5164896;28;20061;-75
2022/03/27 00:04:26;;;;;;;46.42;18.20;;;;;;;6.95;48.51;100275.00;5164969;28;20058;-76
2022/03/27 00:07:16;;;;;;;53.13;19.13;;;;;;;6.70;49.28;100267.66;5167401;28;20102;-75
2022/03/27 00:10:07;;;;;;;52.80;18.48;;;;;;;6.58;50.27;100279.75;5145271;28;20061;-76
2022/03/27 00:12:57;;;;;;;47.80;19.02;;;;;;;6.70;50.31;100286.97;5152607;28;20189;-78
2022/03/27 00:15:47;;;;;;;52.30;18.35;;;;;;;6.55;50.20;100293.09;5158862;28;20065;-78
2022/03/27 00:18:37;;;;;;;45.28;19.42;;;;;;;6.50;50.63;100289.88;5160478;28;20062;-78
2022/03/27 00:21:28;;;;;;;47.75;18.30;;;;;;;6.78;49.42;100281.25;5158326;28;20050;-77
2022/03/27 00:24:18;;;;;;;45.20;17.90;;;;;;;6.46;50.14;100273.41;5150319;28;20053;-77
2022/03/27 00:27:08;;;;;;;37.90;17.90;;;;;;;6.07;51.15;100258.88;5164516;28;20086;-77
2022/03/27 00:29:59;;;;;;;50.88;18.90;;;;;;;6.05;51.29;100279.16;5159402;28;20060;-77
2022/03/27 00:32:49;;;;;;;44.40;16.90;;;;;;;6.27;51.07;100278.84;5163505;28;20417;-77
2022/03/27 00:35:39;;;;;;;44.50;17.88;;;;;;;6.55;49.82;100278.13;5165005;28;20647;-77
2022/03/27 00:38:30;;;;;;;53.95;18.08;;;;;;;6.27;50.98;100268.31;5162566;28;20062;-77
2022/03/27 00:41:24;;;;;;;47.78;18.08;;;;;;;6.61;50.52;100289.28;5152861;28;20721;-77
2022/03/27 00:44:14;;;;;;;63.85;20.85;;;;;;;5.98;51.81;100282.22;5163725;28;20050;-77
2022/03/27 00:47:06;;;;;;;51.38;18.45;;;;;;;6.10;51.82;100281.56;5147105;28;20147;-77
2022/03/27 00:49:56;;;;;;;46.72;18.45;;;;;;;5.92;52.90;100290.41;5164556;28;20144;-78
2022/03/27 00:52:46;;;;;;;54.20;18.95;;;;;;;6.08;51.74;100273.72;5144400;28;20434;-77
2022/03/27 00:55:36;;;;;;;53.20;19.20;;;;;;;5.71;52.94;100295.03;5163977;28;20061;-75
2022/03/27 00:58:26;;;;;;;47.35;17.75;;;;;;;5.59;51.82;100289.47;5144320;28;20077;-75
2022/03/27 01:01:21;;;;;;;45.97;18.40;;;;;;;5.57;52.98;100287.88;5161914;28;20057;-76
2022/03/27 01:04:12;;;;;;;45.72;17.50;;;;;;;5.97;52.10;100297.16;5150140;28;20523;-75
2022/03/27 01:07:02;;;;;;;47.38;18.27;;;;;;;5.96;52.09;100274.41;5148322;28;20050;-74
2022/03/27 01:09:53;;;;;;;53.85;18.38;;;;;;;5.74;52.66;100271.19;5162997;28;20046;-75
2022/03/27 01:12:44;;;;;;;52.60;17.48;;;;;;;5.57;53.45;100280.84;5159607;28;20061;-76
2022/03/27 01:15:42;;;;;;;51.75;18.02;;;;;;;5.67;53.39;100264.56;5162069;28;20054;-75
2022/03/27 01:18:33;;;;;;;49.95;19.50;;;;;;;5.83;52.77;100281.25;5159289;28;20057;-76
2022/03/27 01:21:23;;;;;;;48.72;18.83;;;;;;;5.47;53.14;100273.50;5147920;28;20164;-75
2022/03/27 01:24:16;;;;;;;51.95;18.00;;;;;;;5.36;54.03;100263.53;5159241;28;20116;-75
2022/03/27 01:27:07;;;;;;;57.05;18.48;;;;;;;5.49;53.23;100267.22;5161935;28;20047;-75
2022/03/27 01:29:57;;;;;;;45.25;17.55;;;;;;;5.16;54.26;100256.66;5162759;28;20057;-75
2022/03/27 01:32:50;;;;;;;53.90;17.95;;;;;;;5.48;53.67;100269.94;5162990;28;20061;-74
2022/03/27 01:35:41;;;;;;;46.22;18.27;;;;;;;5.15;54.53;100268.97;5141972;28;20148;-76
2022/03/27 01:38:30;;;;;;;44.70;18.13;;;;;;;5.11;53.49;100262.16;5149209;28;20062;-76
2022/03/27 01:41:21;;;;;;;48.08;18.15;;;;;;;5.15;55.02;100263.69;5163551;28;20420;-74
2022/03/27 01:44:17;;;;;;;55.30;18.95;;;;;;;5.28;54.27;100263.94;5165007;28;20058;-75
2022/03/27 01:47:07;;;;;;;42.72;17.40;;;;;;;5.17;54.17;100248.72;5158401;28;20057;-74
2022/03/27 01:50:00;;;;;;;46.03;18.08;;;;;;;5.08;54.80;100258.84;5160800;28;20061;-75
2022/03/27 01:52:50;;;;;;;57.78;18.70;;;;;;;5.12;54.35;100268.28;5161859;28;20056;-75
2022/03/27 01:55:40;;;;;;;51.83;18.60;;;;;;;4.80;54.34;100254.09;5160529;28;20607;-75
2022/03/27 01:58:30;;;;;;;49.78;18.73;;;;;;;4.77;53.27;100243.75;5152626;28;20539;-75
2022/03/27 02:01:20;;;;;;;51.75;17.77;;;;;;;4.64;55.53;100226.00;5146207;28;20054;-75
2022/03/27 02:04:11;;;;;;;47.70;18.02;;;;;;;4.81;54.25;100251.41;5159281;28;20045;-76
2022/03/27 02:07:01;;;;;;;52.92;17.98;;;;;;;4.74;54.60;100250.03;5156491;28;20425;-77
2022/03/27 02:09:51;;;;;;;51.45;18.83;;;;;;;4.68;55.71;100255.59;5128309;28;20113;-77
2022/03/27 02:12:41;;;;;;;53.40;18.08;;;;;;;4.82;56.15;100252.28;5154287;28;20839;-76
2022/03/27 02:15:31;;;;;;;46.70;17.63;;;;;;;4.69;54.64;100257.28;5162571;28;20080;-77
2022/03/27 02:18:21;;;;;;;45.85;18.13;;;;;;;4.54;56.17;100255.41;5148040;28;20421;-76
2022/03/27 02:21:12;;;;;;;48.97;19.08;;;;;;;5.02;55.93;100260.00;5147813;28;20062;-77
2022/03/27 02:24:03;;;;;;;54.40;18.92;;;;;;;4.97;55.67;100261.16;5142407;28;20063;-76
2022/03/27 02:26:53;;;;;;;56.65;18.42;;;;;;;4.82;55.39;100241.75;5142147;28;20101;-77
2022/03/27 02:29:43;;;;;;;44.15;17.52;;;;;;;4.71;55.52;100260.69;5157075;28;20496;-80
2022/03/27 02:32:33;;;;;;;45.40;17.83;;;;;;;4.51;54.82;100264.28;5147247;28;20050;-76
2022/03/27 02:35:23;;;;;;;51.88;19.38;;;;;;;4.53;55.95;100270.31;5160749;28;20196;-76
2022/03/27 02:38:13;;;;;;;45.45;17.30;;;;;;;4.46;56.44;100259.25;5160952;28;20043;-77
2022/03/27 02:41:04;;;;;;;41.80;18.48;;;;;;;4.58;55.69;100268.31;5162024;28;20076;-77
2022/03/27 02:43:54;;;;;;;49.28;18.85;;;;;;;4.67;55.41;100260.00;5142029;28;20051;-77
2022/03/27 02:46:45;;;;;;;56.22;18.23;;;;;;;4.46;56.17;100261.88;5159317;28;20519;-77
2022/03/27 02:49:35;;;;;;;44.38;18.15;;;;;;;4.23;55.14;100238.50;5143746;28;20062;-77
2022/03/27 02:52:25;;;;;;;48.55;18.15;;;;;;;4.31;56.91;100240.78;5160606;28;20065;-75
2022/03/27 02:55:16;;;;;;;47.17;19.08;;;;;;;4.35;56.39;100258.06;5153639;28;20082;-75
2022/03/27 02:58:06;;;;;;;44.70;17.77;;;;;;;4.36;56.60;100255.38;5147808;28;20057;-75
2022/03/27 03:00:57;;;;;;;52.13;18.90;;;;;;;4.32;56.44;100253.81;5161237;28;20050;-75
2022/03/27 03:03:47;;;;;;;46.45;18.27;;;;;;;4.18;57.64;100238.72;5159994;28;20060;-75
2022/03/27 03:06:38;;;;;;;56.95;19.52;;;;;;;4.35;57.19;100250.19;5160002;28;20097;-76
2022/03/27 03:09:28;;;;;;;44.22;17.60;;;;;;;4.55;56.65;100255.31;5147406;28;20177;-76
2022/03/27 03:12:18;;;;;;;46.47;17.33;;;;;;;4.50;56.23;100259.09;5133645;28;20555;-74
2022/03/27 03:15:09;;;;;;;38.97;17.85;;;;;;;4.18;55.99;100254.47;5161940;28;20151;-75
2022/03/27 03:18:00;;;;;;;48.53;19.58;;;;;;;4.18;57.84;100258.88;5162211;28;20054;-74
2022/03/27 03:20:50;;;;;;;53.63;18.20;;;;;;;4.11;57.40;100244.34;5157956;28;20069;-74
2022/03/27 03:23:40;;;;;;;48.22;18.70;;;;;;;4.26;57.49;100253.25;5147350;28;20065;-78
2022/03/27 03:26:30;;;;;;;51.53;18.65;;;;;;;4.39;57.15;100260.47;5122557;28;20116;-75
2022/03/27 03:29:21;;;;;;;48.25;18.52;;;;;;;4.29;57.55;100256.59;5160976;28;20141;-74
2022/03/27 03:32:11;;;;;;;56.25;17.90;;;;;;;4.31;57.59;100267.88;5144962;28;20050;-76
2022/03/27 03:35:02;;;;;;;49.47;18.67;;;;;;;3.95;57.91;100250.28;5144800;28;20052;-75
2022/03/27 03:37:54;;;;;;;50.83;19.27;;;;;;;3.96;58.49;100266.88;5161122;28;20081;-76
2022/03/27 03:40:44;;;;;;;43.28;17.30;;;;;;;4.09;57.92;100269.81;5164652;28;20559;-76
2022/03/27 03:43:37;;;;;;;51.08;18.13;;;;;;;3.87;57.47;100256.81;5144160;28;20057;-75
2022/03/27 03:46:27;;;;;;;46.60;18.85;;;;;;;3.91;57.80;100269.75;5145804;28;20073;-75
2022/03/27 03:49:20;;;;;;;49.30;18.77;;;;;;;3.89;58.72;100268.09;5155271;28;20528;-75
2022/03/27 03:52:10;;;;;;;48.30;17.98;;;;;;;4.12;58.45;100273.13;5146798;28;20062;-76
2022/03/27 03:55:00;;;;;;;45.20;17.63;;;;;;;4.29;56.97;100264.47;5161944;28;20101;-75
2022/03/27 03:57:50;;;;;;;48.58;17.50;;;;;;;3.99;58.32;100274.63;5161250;28;20053;-75
2022/03/27 04:00:41;;;;;;;51.67;17.77;;;;;;;4.32;57.49;100274.81;5146272;28;20058;-75
2022/03/27 04:03:32;;;;;;;49.58;17.98;;;;;;;4.24;57.44;100272.56;5127253;28;20065;-75
2022/03/27 04:06:22;;;;;;;50.72;18.88;;;;;;;4.08;57.53;100270.72;5160415;28;20090;-76
2022/03/27 04:09:13;;;;;;;50.42;17.75;;;;;;;4.13;57.35;100273.97;5144470;28;20136;-76
2022/03/27 04:12:03;;;;;;;47.70;19.10;;;;;;;4.16;57.81;100264.19;5147724;28;20057;-75
2022/03/27 04:14:53;;;;;;;42.75;18.08;;;;;;;4.11;58.01;100271.44;5159243;28;20090;-74
2022/03/27 04:17:45;;;;;;;56.40;18.92;;;;;;;4.12;57.28;100275.75;5149722;28;20132;-76
2022/03/27 04:20:36;;;;;;;51.47;18.83;;;;;;;3.80;58.02;100255.41;5152454;28;20531;-76
2022/03/27 04:23:25;;;;;;;51.03;20.20;;;;;;;3.95;58.35;100270.44;5164520;28;20061;-74
2022/03/27 04:26:15;;;;;;;48.13;19.40;;;;;;;3.85;57.56;100266.53;5143154;28;20221;-75
2022/03/27 04:29:05;;;;;;;52.80;20.27;;;;;;;3.69;57.64;100272.47;5164809;28;20054;-75
2022/03/27 04:31:55;;;;;;;51.03;19.38;;;;;;;3.62;58.38;100265.81;5149812;28;20068;-78
2022/03/27 04:34:45;;;;;;;48.08;18.70;;;;;;;3.76;58.67;100266.03;5146959;28;20061;-75
2022/03/27 04:37:42;;;;;;;57.83;20.13;;;;;;;3.84;57.81;100267.44;5162181;28;20105;-75
2022/03/27 04:40:32;;;;;;;41.33;18.42;;;;;;;3.57;59.04;100253.81;5157031;28;20412;-74
2022/03/27 04:43:23;;;;;;;46.08;18.95;;;;;;;3.67;59.07;100262.97;5165330;28;20062;-74
2022/03/27 04:46:17;;;;;;;47.70;19.38;;;;;;;3.65;58.95;100267.44;5165343;28;20125;-77
2022/03/27 04:49:07;;;;;;;55.17;19.42;;;;;;;3.47;59.36;100269.94;5164671;28;20057;-77
2022/03/27 04:51:58;;;;;;;41.83;18.40;;;;;;;3.52;59.04;100267.13;5135404;28;20144;-75
2022/03/27 04:54:48;;;;;;;51.55;19.02;;;;;;;3.80;58.53;100258.03;5149798;28;20050;-77
2022/03/27 04:57:39;;;;;;;46.83;19.77;;;;;;;3.78;58.75;100273.84;5163918;28;20054;-76
2022/03/27 05:00:29;;;;;;;47.15;18.63;;;;;;;3.62;59.72;100267.59;5163902;28;20932;-76
2022/03/27 05:03:19;;;;;;;47.13;19.00;;;;;;;3.50;59.52;100269.81;5149134;28;20094;-76
2022/03/27 05:06:10;;;;;;;43.35;18.52;;;;;;;3.34;60.11;100279.25;5155977;28;20053;-76
2022/03/27 05:09:00;;;;;;;46.33;18.90;;;;;;;3.55;59.62;100277.50;5159317;28;20100;-76
2022/03/27 05:11:50;;;;;;;55.28;18.80;;;;;;;3.58;58.91;100274.75;5158777;28;20065;-77
2022/03/27 05:14:41;;;;;;;51.72;19.42;;;;;;;3.56;59.32;100284.44;5157073;28;20060;-76
2022/03/27 05:17:30;;;;;;;48.72;18.63;;;;;;;3.51;59.73;100286.41;5135403;28;20058;-76
2022/03/27 05:20:21;;;;;;;51.92;20.48;;;;;;;3.39;59.93;100285.19;5155382;28;20077;-76
2022/03/27 05:23:11;;;;;;;49.25;19.25;;;;;;;3.46;60.17;100288.38;5159594;28;20061;-77
2022/03/27 05:26:01;;;;;;;53.03;20.00;;;;;;;3.37;60.92;100291.41;5148129;28;20428;-76
2022/03/27 05:28:53;;;;;;;59.05;19.25;;;;;;;3.34;60.94;100291.53;5158462;28;20417;-75
2022/03/27 05:31:45;;;;;;;53.70;20.88;;;;;;;3.46;60.31;100286.59;5148533;28;20428;-76
2022/03/27 05:34:36;;;;;;;55.30;19.63;;;;;;;3.40;61.13;100279.00;5134640;28;20050;-76
2022/03/27 05:37:26;;;;;;;46.58;19.42;;;;;;;3.61;60.69;100292.97;5161873;28;20130;-76
2022/03/27 05:40:18;;;;;;;56.50;20.02;;;;;;;3.84;59.99;100302.44;5159106;28;20053;-75
2022/03/27 05:43:08;;;;;;;47.42;18.38;;;;;;;3.49;60.24;100306.59;5161311;28;20132;-76
2022/03/27 05:45:59;;;;;;;55.60;18.73;;;;;;;3.56;60.18;100296.69;5147665;28;20061;-74
2022/03/27 05:48:54;;;;;;;55.78;21.23;;;;;;;3.64;60.07;100292.81;5163424;28;20050;-78
2022/03/27 05:51:44;;;;;;;52.35;19.80;;;;;;;3.74;60.46;100303.72;5134449;28;20061;-75
2022/03/27 05:54:34;;;;;;;51.90;20.42;;;;;;;3.84;61.12;100301.56;5148803;28;20057;-76
2022/03/27 05:57:24;;;;;;;52.20;21.08;;;;;;;3.73;61.57;100281.06;5134521;28;20097;-75
2022/03/27 06:00:21;;;;;;;50.95;21.08;;;;;;;3.85;61.48;100305.91;5148672;28;20333;-76
2022/03/27 06:03:11;;;;;;;52.40;22.38;;;;;;;3.90;60.84;100304.75;5147985;28;20061;-75
2022/03/27 06:06:04;;;;;;;93.80;34.58;;;;;;;4.08;62.53;100303.06;5162743;28;20152;-75
2022/03/27 06:08:57;;;;;;;92.32;35.00;;;;;;;4.21;63.07;100304.22;5147288;28;20073;-74
2022/03/27 06:11:47;;;;;;;102.40;38.70;;;;;;;4.27;62.76;100308.31;5149299;28;20465;-76
2022/03/27 06:14:38;;;;;;;111.97;41.08;;;;;;;4.31;62.74;100309.03;5162253;28;20054;-74
2022/03/27 06:17:28;;;;;;;68.30;28.15;;;;;;;4.19;64.25;100298.16;5148535;28;20049;-74
2022/03/27 06:20:21;;;;;;;54.55;21.60;;;;;;;4.26;63.31;100311.00;5148838;28;20543;-76
2022/03/27 06:23:13;;;;;;;55.88;21.27;;;;;;;4.35;62.29;100307.97;5146427;28;20085;-76
2022/03/27 06:26:04;;;;;;;52.28;20.55;;;;;;;4.48;62.26;100319.59;5161961;28;20516;-76
2022/03/27 06:28:54;;;;;;;50.55;19.98;;;;;;;4.61;62.38;100307.56;5159248;28;20054;-76
2022/03/27 06:31:45;;;;;;;49.25;21.67;;;;;;;4.74;61.57;100307.84;5147760;28;20061;-75
2022/03/27 06:34:35;;;;;;;49.30;21.15;;;;;;;4.68;63.08;100297.63;5137383;28;20058;-75
2022/03/27 06:37:27;;;;;;;48.80;21.52;;;;;;;4.77;61.31;100312.06;5146172;28;20057;-74
2022/03/27 06:40:17;;;;;;;71.72;31.65;;;;;;;4.92;60.25;100327.09;5148026;28;20138;-77
2022/03/27 06:43:08;;;;;;;74.63;30.70;;;;;;;4.91;60.88;100317.53;5161302;28;20057;-76
2022/03/27 06:45:58;;;;;;;57.38;22.77;;;;;;;5.07;60.81;100310.56;5144639;28;20057;-76
2022/03/27 06:48:49;;;;;;;49.05;21.40;;;;;;;5.35;61.16;100327.59;5147951;28;20042;-75
2022/03/27 06:51:39;;;;;;;54.20;22.55;;;;;;;5.41;60.90;100324.66;5133332;28;20128;-74
2022/03/27 06:54:30;;;;;;;53.20;21.48;;;;;;;5.65;59.92;100326.00;5148306;28;20081;-75
2022/03/27 06:57:21;;;;;;;51.13;21.55;;;;;;;5.90;59.89;100340.53;5147824;28;20057;-75
2022/03/27 07:03:22;;;;;;;54.53;22.40;;;;;;;6.11;58.32;100331.50;5162593;28;20050;-74
2022/03/27 07:06:17;;;;;;;56.45;22.23;;;;;;;6.17;58.08;100329.47;5164720;28;20588;-75
2022/03/27 07:09:07;;;;;;;46.78;21.40;;;;;;;6.21;59.08;100334.47;5157451;28;20038;-75
2022/03/27 07:11:56;;;;;;;62.90;22.45;;;;;;;6.35;57.89;100326.66;5161602;28;20165;-75
2022/03/27 07:14:46;;;;;;;58.03;21.67;;;;;;;6.36;58.53;100335.44;5147319;28;20061;-75
2022/03/27 07:17:57;;;;;;;50.20;20.88;;;;;;;6.81;57.58;100329.38;5151424;28;20082;-76
2022/03/27 07:20:47;;;;;;;53.47;20.63;;;;;;;7.46;55.79;100321.19;5147145;28;20108;-77
2022/03/27 07:23:37;;;;;;;49.67;21.67;;;;;;;8.58;52.41;100334.59;5147954;28;20080;-77
2022/03/27 07:26:28;;;;;;;58.53;21.95;;;;;;;9.37;50.67;100333.78;5146797;28;20060;-78
2022/03/27 07:29:18;;;;;;;60.33;21.42;;;;;;;10.14;48.25;100329.38;5200112;22;20049;-68
2022/03/27 07:32:12;;;;;;;52.53;22.45;;;;;;;10.71;46.91;100335.94;5185400;28;20114;-68
2022/03/27 07:35:05;;;;;;;52.47;21.08;;;;;;;11.46;44.07;100335.66;5201640;28;20060;-68
2022/03/27 07:37:59;;;;;;;55.45;21.77;;;;;;;11.69;43.52;100332.09;5201362;28;20053;-68
2022/03/27 07:40:49;;;;;;;50.70;19.98;;;;;;;12.35;43.65;100328.72;5178681;28;20057;-68
2022/03/27 07:43:39;;;;;;;44.38;20.83;;;;;;;13.05;41.68;100325.69;5196063;28;20511;-68
2022/03/27 07:46:30;;;;;;;45.47;20.25;;;;;;;13.75;39.72;100334.06;5190566;28;20056;-69
2022/03/27 07:49:23;;;;;;;51.08;20.15;;;;;;;14.04;38.55;100334.22;5201460;28;20128;-67
2022/03/27 07:52:13;;;;;;;57.80;22.40;;;;;;;13.58;39.49;100331.00;5193474;28;20052;-67
2022/03/27 07:55:05;;;;;;;48.28;20.73;;;;;;;14.86;39.14;100328.72;5183874;28;20060;-68
2022/03/27 07:57:55;;;;;;;45.25;20.38;;;;;;;13.46;38.68;100324.06;5204671;28;20052;-67
2022/03/27 08:00:46;;;;;;;47.15;20.88;;;;;;;14.28;38.19;100331.22;5202468;28;20124;-66
2022/03/27 08:03:38;;;;;;;42.60;20.90;;;;;;;15.32;38.13;100312.97;5201193;28;20049;-68
2022/03/27 08:06:31;;;;;;;42.13;20.45;;;;;;;14.05;39.99;100323.41;5204500;28;20131;-67
2022/03/27 08:09:22;;;;;;;46.80;19.58;;;;;;;15.43;38.06;100332.38;5189644;28;20045;-69
2022/03/27 08:12:12;;;;;;;57.65;21.00;;;;;;;16.66;34.72;100331.41;5204922;28;20064;-68
2022/03/27 08:15:04;;;;;;;51.97;20.27;;;;;;;17.04;33.27;100333.00;5203775;28;20049;-68
2022/03/27 08:17:54;;;;;;;41.03;18.58;;;;;;;17.51;33.39;100329.22;5200687;28;20523;-68
2022/03/27 08:20:45;;;;;;;39.38;18.92;;;;;;;17.30;34.16;100337.59;5192510;28;20045;-68
2022/03/27 08:23:36;;;;;;;42.47;18.98;;;;;;;17.70;32.15;100329.03;5199199;28;20057;-69
2022/03/27 08:29:37;;;;;;;43.08;18.60;;;;;;;17.94;32.74;100335.56;5200702;28;20050;-69
2022/03/27 08:32:27;;;;;;;46.47;20.13;;;;;;;17.60;33.61;100326.44;5183079;28;20049;-68
2022/03/27 08:35:18;;;;;;;38.15;18.77;;;;;;;16.31;35.74;100324.97;5195148;28;20045;-69
2022/03/27 08:38:13;;;;;;;39.63;19.27;;;;;;;18.10;32.64;100332.16;5201730;28;20095;-68
2022/03/27 08:41:04;;;;;;;43.13;18.70;;;;;;;17.94;33.26;100327.53;5200999;28;20053;-67
2022/03/27 08:43:58;;;;;;;46.13;19.65;;;;;;;18.54;33.73;100322.97;5199736;28;20057;-67
2022/03/27 08:46:49;;;;;;;;;;;;;;;17.23;36.01;100317.78;5203944;28;20503;-67
2022/03/27 08:49:49;;;;;;;39.75;18.55;;;;;;;18.21;33.54;100322.00;5201679;28;19941;-67
2022/03/27 08:52:53;;;;;;;41.40;18.83;;;;;;;18.55;32.82;100318.41;5201275;28;20187;-67
2022/03/27 08:55:58;;;;;;;32.58;18.35;;;;;;;19.06;33.04;100324.59;5202387;28;20057;-67
2022/03/27 08:58:49;;;;;;;37.92;17.35;;;;;;;19.88;30.24;100319.22;5203958;28;20522;-68
2022/03/27 09:01:39;;;;;;;42.55;18.35;;;;;;;18.74;32.41;100287.75;5189048;28;20211;-68
2022/03/27 09:04:31;;;;;;;36.17;18.15;;;;;;;19.11;32.13;100316.06;5199079;28;20110;-69
2022/03/27 09:07:27;;;;;;;38.30;18.63;;;;;;;18.42;32.80;100321.56;5201848;28;20046;-69
2022/03/27 09:10:17;;;;;;;37.63;18.08;;;;;;;18.53;33.58;100323.09;5203947;28;20175;-68
2022/03/27 09:13:11;;;;;;;40.50;18.10;;;;;;;20.28;32.48;100304.78;5189343;28;20053;-68
2022/03/27 09:16:04;;;;;;;31.53;18.17;;;;;;;21.13;30.47;100308.53;5203654;28;20195;-69
2022/03/27 09:19:01;;;;;;;37.58;17.30;;;;;;;20.40;31.36;100314.16;5203738;28;20280;-69
2022/03/27 09:21:52;;;;;;;39.05;18.85;;;;;;;20.69;30.89;100311.84;5201042;28;20119;-68
2022/03/27 09:24:46;;;;;;;35.53;17.83;;;;;;;20.06;34.00;100317.13;5203872;28;20466;-68
2022/03/27 09:27:37;;;;;;;37.33;18.02;;;;;;;20.07;31.07;100313.44;5188830;28;20104;-68
2022/03/27 09:30:34;;;;;;;40.83;18.75;;;;;;;20.95;30.37;100304.25;5188505;28;20127;-68
2022/03/27 09:33:46;;;;;;;31.80;17.75;;;;;;;21.15;31.20;100312.72;5194968;28;20506;-69
2022/03/27 09:36:42;;;;;;;37.40;18.30;;;;;;;21.03;32.16;100303.38;5186373;28;20140;-68
2022/03/27 09:39:33;;;;;;;32.05;17.42;;;;;;;21.53;31.42;100305.53;5202454;28;20079;-67
2022/03/27 09:42:24;;;;;;;32.50;16.77;;;;;;;21.41;29.62;100296.19;5198720;28;20045;-66
2022/03/27 09:45:23;;;;;;;33.70;17.60;;;;;;;20.91;30.68;100300.25;5187363;28;20060;-67
2022/03/27 09:48:13;;;;;;;36.92;19.08;;;;;;;21.26;31.67;100296.13;5199065;28;20128;-67
2022/03/27 09:51:03;;;;;;;34.92;18.63;;;;;;;19.46;33.16;100286.09;5187518;28;20095;-66
2022/03/27 09:53:58;;;;;;;39.00;17.73;;;;;;;21.51;31.88;100294.06;5198868;28;20179;-67
2022/03/27 09:56:49;;;;;;;34.22;16.90;;;;;;;21.78;30.12;100298.00;5202686;28;20061;-67
2022/03/27 09:59:39;;;;;;;37.40;18.40;;;;;;;21.46;29.67;100258.72;5198785;28;20235;-67
2022/03/27 10:02:30;;;;;;;33.83;17.10;;;;;;;21.55;30.66;100279.16;5203088;28;20431;-69
2022/03/27 10:05:21;;;;;;;34.88;16.92;;;;;;;22.20;32.46;100272.25;5198563;28;20056;-68
2022/03/27 10:08:11;;;;;;;32.45;17.38;;;;;;;22.22;30.92;100280.19;5202959;28;20144;-68
2022/03/27 10:11:01;;;;;;;36.40;17.75;;;;;;;22.58;31.57;100273.94;5202504;28;20060;-68
2022/03/27 10:13:52;;;;;;;34.33;18.08;;;;;;;22.54;29.85;100278.06;5187798;28;20053;-68
2022/03/27 10:16:46;;;;;;;36.00;17.75;;;;;;;22.84;29.41;100276.09;5186957;28;20064;-69
2022/03/27 10:19:48;;;;;;;36.65;18.17;;;;;;;22.43;29.73;100269.41;5200823;28;20072;-68
2022/03/27 10:22:48;;;;;;;36.55;17.48;;;;;;;22.75;29.50;100270.00;5202669;28;20056;-68
2022/03/27 10:25:45;;;;;;;33.45;16.95;;;;;;;21.42;31.58;100257.38;5196092;28;20131;-68
2022/03/27 10:28:37;;;;;;;35.08;17.77;;;;;;;21.41;32.88;100262.97;5202273;28;20045;-68
2022/03/27 10:31:27;;;;;;;39.55;17.23;;;;;;;22.87;29.72;100254.91;5196380;28;20140;-68
2022/03/27 10:34:20;;;;;;;37.17;17.90;;;;;;;23.08;28.27;100245.13;5202497;28;20100;-69
2022/03/27 10:37:25;;;;;;;38.28;17.40;;;;;;;23.01;28.74;100245.06;5202087;28;20053;-69
2022/03/27 10:40:46;;;;;;;36.80;16.63;;;;;;;22.30;30.88;100236.81;5201788;28;20068;-68
2022/03/27 10:43:46;;;;;;;33.92;17.52;;;;;;;22.13;29.21;100240.75;5201237;28;20472;-68
2022/03/27 10:46:36;;;;;;;30.02;16.67;;;;;;;21.31;31.42;100231.66;5202321;28;20057;-68
2022/03/27 10:49:26;;;;;;;38.78;18.50;;;;;;;21.80;31.31;100222.25;5202275;28;20419;-69
2022/03/27 10:52:16;;;;;;;43.88;17.25;;;;;;;23.19;30.67;100215.69;5199432;28;20053;-69
2022/03/27 10:55:09;;;;;;;40.28;18.60;;;;;;;21.97;32.38;100214.78;5200140;28;20095;-68
2022/03/27 10:57:59;;;;;;;36.08;17.85;;;;;;;21.53;31.41;100216.47;5198838;28;20098;-69
2022/03/27 11:00:49;;;;;;;34.95;18.00;;;;;;;21.99;32.43;100218.97;5202230;28;20135;-68
2022/03/27 11:04:04;;;;;;;39.55;16.63;;;;;;;21.34;32.08;100203.47;5202017;28;20125;-69
2022/03/27 11:07:18;;;;;;;34.00;18.33;;;;;;;20.94;31.65;100205.53;5196944;28;20104;-69
2022/03/27 11:10:40;;;;;;;40.65;17.50;;;;;;;20.91;31.82;100205.91;5196451;28;20048;-71
2022/03/27 11:13:31;;;;;;;31.98;14.82;;;;;;;20.99;29.17;100200.44;5201821;28;20057;-70
2022/03/27 11:16:21;;;;;;;39.15;16.52;;;;;;;21.82;30.42;100198.59;5201338;28;20045;-69
2022/03/27 11:19:43;;;;;;;32.28;16.88;;;;;;;21.09;32.42;100201.03;5200986;28;20052;-69
2022/03/27 11:22:53;;;;;;;35.38;17.70;;;;;;;20.37;32.26;100190.59;5198622;28;20046;-69
2022/03/27 11:25:45;;;;;;;37.42;16.50;;;;;;;20.69;31.46;100161.75;5184298;28;20048;-69
2022/03/27 11:28:44;;;;;;;34.60;15.77;;;;;;;21.76;30.86;100185.84;5200170;28;20057;-67
2022/03/27 11:31:37;;;;;;;35.40;15.63;;;;;;;21.96;29.80;100169.91;5198985;28;20054;-70
2022/03/27 11:34:28;;;;;;;31.63;15.85;;;;;;;21.94;31.27;100174.66;5197403;28;20140;-69
2022/03/27 11:37:25;;;;;;;25.67;12.45;;;;;;;20.93;29.11;100171.53;5200084;28;20499;-68
2022/03/27 11:40:37;;;;;;;25.52;11.75;;;;;;;22.27;27.49;100170.50;5198891;28;20049;-69
2022/03/27 11:43:31;;;;;;;24.63;12.30;;;;;;;21.47;27.18;100165.09;5197641;28;20053;-69
2022/03/27 11:46:28;;;;;;;25.70;11.32;;;;;;;22.32;27.94;100161.84;5198848;28;20184;-69
2022/03/27 11:49:39;;;;;;;24.63;11.27;;;;;;;22.73;28.40;100155.78;5207583;28;20135;-69
2022/03/27 11:52:29;;;;;;;28.38;12.18;;;;;;;22.00;26.84;100145.03;5206732;28;20046;-68
2022/03/27 11:55:20;;;;;;;31.90;11.77;;;;;;;20.98;28.16;100138.59;5208184;28;20056;-68
2022/03/27 11:58:18;;;;;;;23.55;10.60;;;;;;;22.15;26.97;100125.22;5207708;28;20509;-68
2022/03/27 12:01:09;;;;;;;31.08;12.38;;;;;;;21.28;27.97;100151.09;5207588;28;20151;-69
2022/03/27 12:04:00;;;;;;;27.85;12.48;;;;;;;21.87;26.96;100144.03;5207564;28;20048;-68
2022/03/27 12:06:58;;;;;;;25.27;11.65;;;;;;;21.63;27.98;100139.78;5202624;28;20558;-68
2022/03/27 12:10:00;;;;;;;23.92;10.93;;;;;;;22.00;26.66;100125.28;5207452;28;20060;-68
2022/03/27 12:12:55;;;;;;;26.38;11.68;;;;;;;21.60;26.54;100148.25;5205025;28;20063;-67
2022/03/27 12:15:51;;;;;;;30.02;10.77;;;;;;;21.55;27.12;100138.00;5207127;28;20053;-68
2022/03/27 12:18:43;;;;;;;36.88;13.80;;;;;;;21.84;27.07;100134.44;5206520;28;20174;-69
2022/03/27 12:21:33;;;;;;;25.23;11.98;;;;;;;22.08;28.52;100129.72;5202540;28;20187;-70
2022/03/27 12:24:23;;;;;;;39.88;18.27;;;;;;;21.42;26.24;100130.56;5204873;28;20064;-69
2022/03/27 12:30:36;;;;;;;31.48;14.65;;;;;;;21.75;25.82;100124.75;5201180;28;20052;-68
2022/03/27 12:33:28;;;;;;;27.30;13.68;;;;;;;22.16;26.72;100116.16;5189487;28;20046;-66
2022/03/27 12:36:18;;;;;;;33.50;14.45;;;;;;;21.66;26.96;100110.56;5204008;28;20131;-68
2022/03/27 12:39:13;;;;;;;29.75;11.93;;;;;;;20.17;27.36;100122.06;5203950;28;20048;-69
2022/03/27 12:42:03;;;;;;;22.70;10.27;;;;;;;19.93;27.26;100112.25;5186950;28;20079;-68
2022/03/27 12:44:53;;;;;;;29.05;10.05;;;;;;;20.26;28.01;100112.03;5188648;28;20056;-69
2022/03/27 12:47:51;;;;;;;23.05;10.70;;;;;;;21.69;27.64;100120.97;5203914;28;20629;-69
2022/03/27 12:50:44;;;;;;;30.60;12.60;;;;;;;21.74;28.22;100117.69;5195646;28;20060;-67
2022/03/27 12:53:34;;;;;;;24.98;10.80;;;;;;;22.09;27.99;100113.34;5200935;28;20064;-66
2022/03/27 12:56:24;;;;;;;28.02;10.75;;;;;;;22.02;27.80;100099.78;5203554;28;20065;-66
2022/03/27 12:59:22;;;;;;;24.90;10.63;;;;;;;21.83;25.38;100105.78;5197760;28;20530;-65
2022/03/27 13:02:25;;;;;;;22.48;10.40;;;;;;;21.13;25.86;100109.81;5203751;28;20080;-67
2022/03/27 13:05:27;;;;;;;19.95;10.63;;;;;;;21.32;26.28;100105.69;5184415;28;20290;-69
2022/03/27 13:08:28;;;;;;;25.73;9.77;;;;;;;20.71;26.51;100091.53;5187776;28;20049;-68
2022/03/27 13:11:19;;;;;;;24.92;10.52;;;;;;;21.61;25.86;100101.34;5188875;28;20048;-68
2022/03/27 13:14:10;;;;;;;25.55;9.77;;;;;;;21.24;26.17;100098.53;5200604;28;20437;-67
2022/03/27 13:17:00;;;;;;;24.63;10.48;;;;;;;20.85;26.36;100090.69;5182633;28;20053;-67
2022/03/27 13:19:50;;;;;;;25.30;10.80;;;;;;;21.93;25.58;100084.69;5174969;28;20571;-66